• Join FlightAware (Why Join?)
  • Login
  • US Flag 
04:00AM EDT


 

Airport Tracker/Info


-or-


 

Live Flight TrackerFlight Track Log ✈ PDT4130 ✈ 11-Jan-2014 ✈ KPHL - KROC

Flight Track Log - Related Links

Times and Time Zones

All times are in EST time to prevent confusion due to time zone crossing. See the PDT4130 flight status page for this flight to view local times or setup timezone preferences in your user account.

Time Position Orientation Groundspeed Altitude Reporting Facility
EST Latitude Longitude Course Direction KTS MPH feet Rate Location/Type
03:39PM 39.8667 -75.2667 311° West 111 128 600  Level Philadelphia TRACON
03:40PM 39.8667 -75.3000 270° West 127 146 1,900 1,140 Climbing Philadelphia TRACON
03:41PM 39.9000 -75.3500 311° West 141 162 2,900 480 Climbing Philadelphia TRACON
03:42PM 40.0496 -75.3667 323° Northwest  Level Estimated
03:42PM 39.9167 -75.4000 294° West 174 200 3,000  Level Philadelphia TRACON
03:43PM 40.1087 -75.4087 303° West  Level Estimated
03:43PM 39.9333 -75.4500 294° West 184 212 3,000  Level Philadelphia TRACON
03:44PM 40.1678 -75.4509 311° West  Level Estimated
03:44PM 39.9667 -75.5000 311° West 191 220 3,000  Level Philadelphia TRACON
03:45PM 40.0333 -75.5000 360° North 201 231 3,000  Level Philadelphia TRACON
03:46PM 40.0833 -75.5000 360° North 195 224 3,000  Level Philadelphia TRACON
03:47PM 40.1333 -75.5000 360° North 207 238 3,000 -60 Level Philadelphia TRACON
03:48PM 40.2000 -75.4833 11° North 223 257 2,900  Descending Philadelphia TRACON
03:49PM 40.1833 -75.4000 105° East 200 230 3,000  Climbing Philadelphia TRACON
03:50PM 40.1500 -75.3500 131° Southeast 203 234 3,000  Level Philadelphia TRACON
03:51PM 40.1167 -75.2833 123° Southeast 202 232 3,000  Level Philadelphia TRACON
03:53PM 40.0167 -75.2333 323° Northwest 188 216 3,000  Level Philadelphia TRACON
03:54PM 39.9667 -75.2167 166° South 187 215 3,000  Level Philadelphia TRACON
03:55PM 39.9167 -75.2000 166° South 177 204 3,000  Level Philadelphia TRACON
03:56PM 39.8667 -75.1500 142° Southeast 191 220 3,000 -60 Level Philadelphia TRACON
03:57PM 39.8333 -75.1167 142° Southeast 186 214 2,900 -60 Descending Philadelphia TRACON
03:58PM 39.8167 -75.0667 113° Southeast 230 265 2,900  Level Philadelphia TRACON
03:59PM 39.8333 -74.9833 75° East 223 257 3,000 -120 Climbing Philadelphia TRACON
04:00PM 39.8833 -74.9667 14° North 192 221 2,700 -480 Descending Philadelphia TRACON
04:01PM 39.9167 -75.0167 311° West 157 181 2,100 -300 Descending Philadelphia TRACON
04:02PM 39.9000 -75.0667 247° West 109 125 2,100 -120 Level Philadelphia TRACON
04:03PM 39.9000 -75.1000 270° West 108 124 1,900 -360 Descending Philadelphia TRACON
04:04PM 39.9000 -75.1333 270° West 105 121 1,400 -540 Descending Philadelphia TRACON
04:05PM 39.8833 -75.1667 237° Southwest 102 117 900 -600 Descending Philadelphia TRACON
04:06PM 39.8833 -75.2000 270° West 110 127 300 -600 Descending Philadelphia TRACON
04:08PM 39.9256 -75.2845 303° West  Level FlightAware Approximate
04:15PM 40.2308 -75.5711 311° West  Level FlightAware Approximate
04:16PM 40.2764 -75.6395 311° West  Level FlightAware Approximate
04:17PM 40.3220 -75.7079 311° West  Level FlightAware Approximate
04:18PM 40.3676 -75.7764 311° West  Level FlightAware Approximate
04:19PM 40.4017 -75.8521 316° Northwest  Level FlightAware Approximate
04:20PM 40.4519 -75.9148 316° Northwest  Level FlightAware Approximate
04:21PM 40.4990 -75.9816 311° West  Level FlightAware Approximate
04:22PM 40.5447 -76.0501 311° West  Level FlightAware Approximate
04:23PM 40.5904 -76.1186 311° West  Level FlightAware Approximate
04:24PM 40.6361 -76.1873 311° West  Level FlightAware Approximate
04:25PM 40.6895 -76.2333 North  Level FlightAware Approximate
04:26PM 40.7588 -76.2318 North  Level FlightAware Approximate
04:27PM 40.8280 -76.2274 North  Level FlightAware Approximate
04:28PM 40.8973 -76.2231 North  Level FlightAware Approximate
04:29PM 40.9665 -76.2188 North  Level FlightAware Approximate
04:30PM 41.0197 -76.2561 304° West  Level FlightAware Approximate
04:31PM 41.0593 -76.3314 310° West  Level FlightAware Approximate
04:32PM 41.1039 -76.4018 310° West  Level FlightAware Approximate
04:33PM 41.1485 -76.4723 310° West  Level FlightAware Approximate
04:34PM 41.1930 -76.5429 310° West  Level FlightAware Approximate
04:35PM 41.2374 -76.6135 310° West  Level FlightAware Approximate
04:36PM 41.2818 -76.6843 310° West  Level FlightAware Approximate
04:37PM 41.3262 -76.7552 310° West  Level FlightAware Approximate
04:38PM 41.3897 -76.7854 346° North  Level FlightAware Approximate
04:39PM 41.4569 -76.8078 346° North  Level FlightAware Approximate
04:40PM 41.5241 -76.8303 346° North  Level FlightAware Approximate
04:41PM 41.5914 -76.8527 346° North  Level FlightAware Approximate
04:42PM 41.6587 -76.8747 347° North  Level FlightAware Approximate
04:43PM 41.7261 -76.8962 347° North  Level FlightAware Approximate
04:44PM 41.7935 -76.9177 347° North  Level FlightAware Approximate
04:45PM 41.8609 -76.9393 347° North  Level FlightAware Approximate
04:46PM 41.9283 -76.9609 347° North  Level FlightAware Approximate
04:47PM 41.9957 -76.9825 347° North  Level FlightAware Approximate
04:48PM 42.0626 -77.0063 340° North  Level FlightAware Approximate
04:49PM 42.1270 -77.0409 338° Northwest  Level FlightAware Approximate
04:50PM 42.1911 -77.0765 338° Northwest  Level FlightAware Approximate
04:51PM 42.2523 -77.1190 324° Northwest  Level FlightAware Approximate
04:52PM 42.3166 -77.1500 346° North  Level FlightAware Approximate
04:53PM 42.3772 -77.1954 331° Northwest  Level FlightAware Approximate
04:54PM 42.4383 -77.2385 337° Northwest  Level FlightAware Approximate
04:55PM 42.5022 -77.2750 337° Northwest  Level FlightAware Approximate
04:56PM 42.5612 -77.3232 337° Northwest  Level FlightAware Approximate
04:57PM 42.6249 -77.3603 337° Northwest  Level FlightAware Approximate
04:58PM 42.6886 -77.3974 337° Northwest  Level FlightAware Approximate
04:59PM 42.7522 -77.4347 335° Northwest  Level FlightAware Approximate
05:00PM 42.8152 -77.4740 335° Northwest  Level FlightAware Approximate
05:01PM 42.8782 -77.5135 335° Northwest  Level FlightAware Approximate